sensor_id;sensor_type;location;lat;lon;timestamp;P1;durP1;ratioP1;P2;durP2;ratioP2
6135;SDS011;24008;42.664;23.372;2022-12-29T00:02:25;69.60;;;39.60;;
6135;SDS011;24008;42.664;23.372;2022-12-29T00:04:52;68.97;;;40.73;;
6135;SDS011;24008;42.664;23.372;2022-12-29T00:07:19;71.27;;;39.90;;
6135;SDS011;24008;42.664;23.372;2022-12-29T00:09:46;72.60;;;39.87;;
6135;SDS011;24008;42.664;23.372;2022-12-29T00:12:13;68.37;;;38.77;;
6135;SDS011;24008;42.664;23.372;2022-12-29T00:14:41;70.63;;;38.97;;
6135;SDS011;24008;42.664;23.372;2022-12-29T00:17:25;60.10;;;35.10;;
6135;SDS011;24008;42.664;23.372;2022-12-29T00:19:52;67.40;;;38.47;;
6135;SDS011;24008;42.664;23.372;2022-12-29T00:22:37;60.67;;;35.37;;
6135;SDS011;24008;42.664;23.372;2022-12-29T00:25:21;49.47;;;29.93;;
6135;SDS011;24008;42.664;23.372;2022-12-29T00:28:07;53.23;;;31.03;;
6135;SDS011;24008;42.664;23.372;2022-12-29T00:30:49;48.20;;;27.73;;
6135;SDS011;24008;42.664;23.372;2022-12-29T00:33:34;44.67;;;26.50;;
6135;SDS011;24008;42.664;23.372;2022-12-29T00:36:19;41.67;;;24.80;;
6135;SDS011;24008;42.664;23.372;2022-12-29T00:38:50;38.07;;;22.00;;
6135;SDS011;24008;42.664;23.372;2022-12-29T00:41:38;39.47;;;20.47;;
6135;SDS011;24008;42.664;23.372;2022-12-29T00:44:23;39.80;;;22.20;;
6135;SDS011;24008;42.664;23.372;2022-12-29T00:46:51;40.77;;;22.17;;
6135;SDS011;24008;42.664;23.372;2022-12-29T00:49:18;39.97;;;22.30;;
6135;SDS011;24008;42.664;23.372;2022-12-29T00:51:57;41.00;;;22.70;;
6135;SDS011;24008;42.664;23.372;2022-12-29T00:54:25;37.33;;;21.63;;
6135;SDS011;24008;42.664;23.372;2022-12-29T00:56:53;38.03;;;22.30;;
6135;SDS011;24008;42.664;23.372;2022-12-29T00:59:20;40.07;;;23.60;;
6135;SDS011;24008;42.664;23.372;2022-12-29T01:01:49;41.63;;;22.97;;
6135;SDS011;24008;42.664;23.372;2022-12-29T01:04:18;49.70;;;25.87;;
6135;SDS011;24008;42.664;23.372;2022-12-29T01:06:46;48.03;;;27.20;;
6135;SDS011;24008;42.664;23.372;2022-12-29T01:09:12;46.00;;;27.20;;
6135;SDS011;24008;42.664;23.372;2022-12-29T01:11:57;46.37;;;27.60;;
6135;SDS011;24008;42.664;23.372;2022-12-29T01:14:24;46.10;;;26.47;;
6135;SDS011;24008;42.664;23.372;2022-12-29T01:16:53;44.97;;;26.23;;
6135;SDS011;24008;42.664;23.372;2022-12-29T01:19:20;44.63;;;26.07;;
6135;SDS011;24008;42.664;23.372;2022-12-29T01:21:48;42.90;;;25.50;;
6135;SDS011;24008;42.664;23.372;2022-12-29T01:24:15;42.93;;;25.40;;
6135;SDS011;24008;42.664;23.372;2022-12-29T01:26:44;36.50;;;22.93;;
6135;SDS011;24008;42.664;23.372;2022-12-29T01:29:10;35.67;;;23.53;;
6135;SDS011;24008;42.664;23.372;2022-12-29T01:31:37;37.93;;;22.97;;
6135;SDS011;24008;42.664;23.372;2022-12-29T01:34:06;38.17;;;23.00;;
6135;SDS011;24008;42.664;23.372;2022-12-29T01:36:33;39.17;;;23.13;;
6135;SDS011;24008;42.664;23.372;2022-12-29T01:39:01;39.57;;;24.70;;
6135;SDS011;24008;42.664;23.372;2022-12-29T01:41:31;40.27;;;24.30;;
6135;SDS011;24008;42.664;23.372;2022-12-29T01:43:58;41.43;;;24.23;;
6135;SDS011;24008;42.664;23.372;2022-12-29T01:46:28;40.57;;;23.43;;
6135;SDS011;24008;42.664;23.372;2022-12-29T01:48:59;41.70;;;23.97;;
6135;SDS011;24008;42.664;23.372;2022-12-29T01:51:33;36.93;;;22.83;;
6135;SDS011;24008;42.664;23.372;2022-12-29T01:54:04;38.37;;;22.90;;
6135;SDS011;24008;42.664;23.372;2022-12-29T01:56:36;34.97;;;22.27;;
6135;SDS011;24008;42.664;23.372;2022-12-29T01:59:05;42.73;;;23.67;;
6135;SDS011;24008;42.664;23.372;2022-12-29T02:01:36;36.63;;;22.17;;
6135;SDS011;24008;42.664;23.372;2022-12-29T02:04:03;40.87;;;23.53;;
6135;SDS011;24008;42.664;23.372;2022-12-29T02:06:33;35.73;;;23.23;;
6135;SDS011;24008;42.664;23.372;2022-12-29T02:09:08;35.60;;;21.57;;
6135;SDS011;24008;42.664;23.372;2022-12-29T02:11:35;35.70;;;21.43;;
6135;SDS011;24008;42.664;23.372;2022-12-29T02:14:07;35.33;;;21.60;;
6135;SDS011;24008;42.664;23.372;2022-12-29T02:16:40;35.10;;;21.93;;
6135;SDS011;24008;42.664;23.372;2022-12-29T02:19:39;39.47;;;23.63;;
6135;SDS011;24008;42.664;23.372;2022-12-29T02:22:32;37.00;;;21.93;;
6135;SDS011;24008;42.664;23.372;2022-12-29T02:25:19;37.70;;;22.93;;
6135;SDS011;24008;42.664;23.372;2022-12-29T02:28:11;40.93;;;22.67;;
6135;SDS011;24008;42.664;23.372;2022-12-29T02:31:06;40.73;;;23.23;;
6135;SDS011;24008;42.664;23.372;2022-12-29T02:33:44;41.17;;;24.10;;
6135;SDS011;24008;42.664;23.372;2022-12-29T02:36:24;36.10;;;22.73;;
6135;SDS011;24008;42.664;23.372;2022-12-29T02:39:02;39.47;;;23.40;;
6135;SDS011;24008;42.664;23.372;2022-12-29T02:41:38;37.33;;;23.23;;
6135;SDS011;24008;42.664;23.372;2022-12-29T02:44:12;45.13;;;24.63;;
6135;SDS011;24008;42.664;23.372;2022-12-29T02:46:51;44.23;;;24.80;;
6135;SDS011;24008;42.664;23.372;2022-12-29T02:49:22;41.77;;;25.07;;
6135;SDS011;24008;42.664;23.372;2022-12-29T02:51:58;42.80;;;24.63;;
6135;SDS011;24008;42.664;23.372;2022-12-29T02:54:29;40.57;;;25.40;;
6135;SDS011;24008;42.664;23.372;2022-12-29T02:57:11;40.10;;;24.60;;
6135;SDS011;24008;42.664;23.372;2022-12-29T02:59:40;42.97;;;23.53;;
6135;SDS011;24008;42.664;23.372;2022-12-29T03:02:17;40.10;;;23.83;;
6135;SDS011;24008;42.664;23.372;2022-12-29T03:04:59;38.07;;;23.93;;
6135;SDS011;24008;42.664;23.372;2022-12-29T03:07:40;39.23;;;24.27;;
6135;SDS011;24008;42.664;23.372;2022-12-29T03:10:19;41.57;;;24.53;;
6135;SDS011;24008;42.664;23.372;2022-12-29T03:12:56;48.47;;;26.20;;
6135;SDS011;24008;42.664;23.372;2022-12-29T03:15:59;44.90;;;25.70;;
6135;SDS011;24008;42.664;23.372;2022-12-29T03:18:36;43.60;;;25.10;;
6135;SDS011;24008;42.664;23.372;2022-12-29T03:21:08;45.67;;;26.60;;
6135;SDS011;24008;42.664;23.372;2022-12-29T03:23:38;45.67;;;27.27;;
6135;SDS011;24008;42.664;23.372;2022-12-29T03:26:12;45.93;;;26.40;;
6135;SDS011;24008;42.664;23.372;2022-12-29T03:28:44;45.73;;;27.13;;
6135;SDS011;24008;42.664;23.372;2022-12-29T03:31:15;45.23;;;25.90;;
6135;SDS011;24008;42.664;23.372;2022-12-29T03:33:45;48.03;;;28.43;;
6135;SDS011;24008;42.664;23.372;2022-12-29T03:36:15;45.47;;;27.30;;
6135;SDS011;24008;42.664;23.372;2022-12-29T03:38:52;45.43;;;25.63;;
6135;SDS011;24008;42.664;23.372;2022-12-29T03:41:26;45.13;;;26.67;;
6135;SDS011;24008;42.664;23.372;2022-12-29T03:43:56;44.87;;;25.47;;
6135;SDS011;24008;42.664;23.372;2022-12-29T03:46:22;44.53;;;25.77;;
6135;SDS011;24008;42.664;23.372;2022-12-29T03:48:50;39.20;;;24.27;;
6135;SDS011;24008;42.664;23.372;2022-12-29T03:51:17;42.50;;;22.70;;
6135;SDS011;24008;42.664;23.372;2022-12-29T03:53:44;41.23;;;23.47;;
6135;SDS011;24008;42.664;23.372;2022-12-29T03:56:11;43.87;;;25.33;;
6135;SDS011;24008;42.664;23.372;2022-12-29T03:58:37;44.57;;;25.23;;
6135;SDS011;24008;42.664;23.372;2022-12-29T04:01:04;45.93;;;24.80;;
6135;SDS011;24008;42.664;23.372;2022-12-29T04:03:31;43.87;;;24.23;;
6135;SDS011;24008;42.664;23.372;2022-12-29T04:05:59;41.03;;;25.07;;
6135;SDS011;24008;42.664;23.372;2022-12-29T04:08:26;45.57;;;25.50;;
6135;SDS011;24008;42.664;23.372;2022-12-29T04:10:53;45.53;;;25.53;;
6135;SDS011;24008;42.664;23.372;2022-12-29T04:13:19;43.87;;;24.30;;
6135;SDS011;24008;42.664;23.372;2022-12-29T04:15:46;43.30;;;25.80;;
6135;SDS011;24008;42.664;23.372;2022-12-29T04:18:13;49.07;;;27.33;;
6135;SDS011;24008;42.664;23.372;2022-12-29T04:20:41;49.50;;;27.87;;
6135;SDS011;24008;42.664;23.372;2022-12-29T04:23:27;44.73;;;25.93;;
6135;SDS011;24008;42.664;23.372;2022-12-29T04:25:55;42.70;;;25.57;;
6135;SDS011;24008;42.664;23.372;2022-12-29T04:28:22;48.23;;;27.23;;
6135;SDS011;24008;42.664;23.372;2022-12-29T04:30:48;45.87;;;26.07;;
6135;SDS011;24008;42.664;23.372;2022-12-29T04:33:15;44.53;;;26.17;;
6135;SDS011;24008;42.664;23.372;2022-12-29T04:35:43;42.57;;;26.10;;
6135;SDS011;24008;42.664;23.372;2022-12-29T04:38:10;45.27;;;25.37;;
6135;SDS011;24008;42.664;23.372;2022-12-29T04:40:39;47.70;;;26.53;;
6135;SDS011;24008;42.664;23.372;2022-12-29T04:43:06;43.90;;;24.97;;
6135;SDS011;24008;42.664;23.372;2022-12-29T04:45:33;44.53;;;25.50;;
6135;SDS011;24008;42.664;23.372;2022-12-29T04:48:00;46.20;;;25.80;;
6135;SDS011;24008;42.664;23.372;2022-12-29T04:50:27;49.47;;;26.43;;
6135;SDS011;24008;42.664;23.372;2022-12-29T04:52:54;46.53;;;26.13;;
6135;SDS011;24008;42.664;23.372;2022-12-29T04:55:20;44.50;;;25.50;;
6135;SDS011;24008;42.664;23.372;2022-12-29T04:57:48;47.57;;;27.13;;
6135;SDS011;24008;42.664;23.372;2022-12-29T05:00:15;48.87;;;27.33;;
6135;SDS011;24008;42.664;23.372;2022-12-29T05:02:42;44.27;;;26.23;;
6135;SDS011;24008;42.664;23.372;2022-12-29T05:05:09;46.20;;;27.23;;
6135;SDS011;24008;42.664;23.372;2022-12-29T05:07:36;70.83;;;35.57;;
6135;SDS011;24008;42.664;23.372;2022-12-29T05:10:04;59.57;;;31.07;;
6135;SDS011;24008;42.664;23.372;2022-12-29T05:12:32;51.57;;;28.60;;
6135;SDS011;24008;42.664;23.372;2022-12-29T05:15:01;46.60;;;27.47;;
6135;SDS011;24008;42.664;23.372;2022-12-29T05:20:41;50.43;;;28.63;;
6135;SDS011;24008;42.664;23.372;2022-12-29T05:23:08;51.90;;;28.57;;
6135;SDS011;24008;42.664;23.372;2022-12-29T05:25:35;54.10;;;30.27;;
6135;SDS011;24008;42.664;23.372;2022-12-29T05:28:02;55.37;;;31.23;;
6135;SDS011;24008;42.664;23.372;2022-12-29T05:30:31;53.13;;;31.57;;
6135;SDS011;24008;42.664;23.372;2022-12-29T05:32:58;51.97;;;31.37;;
6135;SDS011;24008;42.664;23.372;2022-12-29T05:35:25;57.93;;;33.23;;
6135;SDS011;24008;42.664;23.372;2022-12-29T05:37:52;62.57;;;34.27;;
6135;SDS011;24008;42.664;23.372;2022-12-29T05:40:19;56.70;;;32.90;;
6135;SDS011;24008;42.664;23.372;2022-12-29T05:42:46;58.20;;;33.53;;
6135;SDS011;24008;42.664;23.372;2022-12-29T05:45:12;57.93;;;33.10;;
6135;SDS011;24008;42.664;23.372;2022-12-29T05:47:40;57.70;;;33.57;;
6135;SDS011;24008;42.664;23.372;2022-12-29T05:50:07;54.43;;;32.90;;
6135;SDS011;24008;42.664;23.372;2022-12-29T05:52:43;61.33;;;33.83;;
6135;SDS011;24008;42.664;23.372;2022-12-29T05:55:11;58.73;;;33.57;;
6135;SDS011;24008;42.664;23.372;2022-12-29T05:57:38;57.10;;;32.53;;
6135;SDS011;24008;42.664;23.372;2022-12-29T06:00:06;59.30;;;34.72;;
6135;SDS011;24008;42.664;23.372;2022-12-29T06:02:34;60.83;;;34.53;;
6135;SDS011;24008;42.664;23.372;2022-12-29T06:05:02;62.47;;;36.50;;
6135;SDS011;24008;42.664;23.372;2022-12-29T06:07:29;69.70;;;36.87;;
6135;SDS011;24008;42.664;23.372;2022-12-29T06:09:56;61.00;;;35.07;;
6135;SDS011;24008;42.664;23.372;2022-12-29T06:12:26;63.10;;;34.77;;
6135;SDS011;24008;42.664;23.372;2022-12-29T06:14:53;63.93;;;35.73;;
6135;SDS011;24008;42.664;23.372;2022-12-29T06:17:20;59.93;;;35.40;;
6135;SDS011;24008;42.664;23.372;2022-12-29T06:19:47;61.30;;;34.83;;
6135;SDS011;24008;42.664;23.372;2022-12-29T06:22:16;63.17;;;36.93;;
6135;SDS011;24008;42.664;23.372;2022-12-29T06:24:42;62.53;;;35.20;;
6135;SDS011;24008;42.664;23.372;2022-12-29T06:27:09;60.63;;;34.60;;
6135;SDS011;24008;42.664;23.372;2022-12-29T06:29:36;62.23;;;35.50;;
6135;SDS011;24008;42.664;23.372;2022-12-29T06:32:05;68.90;;;36.43;;
6135;SDS011;24008;42.664;23.372;2022-12-29T06:34:31;63.27;;;34.93;;
6135;SDS011;24008;42.664;23.372;2022-12-29T06:36:58;65.40;;;36.47;;
6135;SDS011;24008;42.664;23.372;2022-12-29T06:39:27;62.27;;;35.67;;
6135;SDS011;24008;42.664;23.372;2022-12-29T06:41:54;62.10;;;36.57;;
6135;SDS011;24008;42.664;23.372;2022-12-29T06:44:21;63.20;;;36.17;;
6135;SDS011;24008;42.664;23.372;2022-12-29T06:46:48;61.67;;;37.77;;
6135;SDS011;24008;42.664;23.372;2022-12-29T06:49:15;62.70;;;38.07;;
6135;SDS011;24008;42.664;23.372;2022-12-29T06:51:43;56.80;;;34.60;;
6135;SDS011;24008;42.664;23.372;2022-12-29T06:54:09;60.70;;;36.00;;
6135;SDS011;24008;42.664;23.372;2022-12-29T06:56:38;56.73;;;35.17;;
6135;SDS011;24008;42.664;23.372;2022-12-29T06:59:04;58.03;;;35.03;;
6135;SDS011;24008;42.664;23.372;2022-12-29T07:01:31;57.63;;;34.03;;
6135;SDS011;24008;42.664;23.372;2022-12-29T07:03:59;57.67;;;35.20;;
6135;SDS011;24008;42.664;23.372;2022-12-29T07:06:26;60.23;;;35.37;;
6135;SDS011;24008;42.664;23.372;2022-12-29T07:08:53;57.97;;;34.70;;
6135;SDS011;24008;42.664;23.372;2022-12-29T07:11:22;49.53;;;32.27;;
6135;SDS011;24008;42.664;23.372;2022-12-29T07:13:50;46.13;;;29.00;;
6135;SDS011;24008;42.664;23.372;2022-12-29T07:16:18;47.73;;;29.47;;
6135;SDS011;24008;42.664;23.372;2022-12-29T07:18:45;48.37;;;29.83;;
6135;SDS011;24008;42.664;23.372;2022-12-29T07:21:14;46.23;;;28.43;;
6135;SDS011;24008;42.664;23.372;2022-12-29T07:23:41;47.70;;;29.00;;
6135;SDS011;24008;42.664;23.372;2022-12-29T07:26:09;43.73;;;27.53;;
6135;SDS011;24008;42.664;23.372;2022-12-29T07:28:39;42.63;;;26.40;;
6135;SDS011;24008;42.664;23.372;2022-12-29T07:31:09;41.73;;;26.63;;
6135;SDS011;24008;42.664;23.372;2022-12-29T07:33:40;40.13;;;27.40;;
6135;SDS011;24008;42.664;23.372;2022-12-29T07:36:08;40.93;;;26.87;;
6135;SDS011;24008;42.664;23.372;2022-12-29T07:38:38;44.97;;;27.40;;
6135;SDS011;24008;42.664;23.372;2022-12-29T07:41:05;43.93;;;28.40;;
6135;SDS011;24008;42.664;23.372;2022-12-29T07:43:32;41.90;;;27.20;;
6135;SDS011;24008;42.664;23.372;2022-12-29T07:45:58;43.70;;;27.93;;
6135;SDS011;24008;42.664;23.372;2022-12-29T07:48:27;39.70;;;25.43;;
6135;SDS011;24008;42.664;23.372;2022-12-29T07:50:54;38.50;;;26.77;;
6135;SDS011;24008;42.664;23.372;2022-12-29T07:53:22;41.87;;;27.23;;
6135;SDS011;24008;42.664;23.372;2022-12-29T07:55:49;44.30;;;26.90;;
6135;SDS011;24008;42.664;23.372;2022-12-29T07:58:16;39.27;;;26.43;;
6135;SDS011;24008;42.664;23.372;2022-12-29T08:00:43;40.50;;;27.07;;
6135;SDS011;24008;42.664;23.372;2022-12-29T08:03:10;39.67;;;26.80;;
6135;SDS011;24008;42.664;23.372;2022-12-29T08:05:38;40.10;;;27.77;;
6135;SDS011;24008;42.664;23.372;2022-12-29T08:08:05;42.13;;;28.23;;
6135;SDS011;24008;42.664;23.372;2022-12-29T08:10:32;40.60;;;27.97;;
6135;SDS011;24008;42.664;23.372;2022-12-29T08:12:59;42.33;;;27.00;;
6135;SDS011;24008;42.664;23.372;2022-12-29T08:15:26;41.77;;;26.40;;
6135;SDS011;24008;42.664;23.372;2022-12-29T08:17:52;41.53;;;27.67;;
6135;SDS011;24008;42.664;23.372;2022-12-29T08:20:19;45.33;;;29.10;;
6135;SDS011;24008;42.664;23.372;2022-12-29T08:22:47;43.47;;;29.20;;
6135;SDS011;24008;42.664;23.372;2022-12-29T08:25:14;52.03;;;31.03;;
6135;SDS011;24008;42.664;23.372;2022-12-29T08:27:41;43.27;;;28.97;;
6135;SDS011;24008;42.664;23.372;2022-12-29T08:30:09;44.87;;;30.17;;
6135;SDS011;24008;42.664;23.372;2022-12-29T08:32:37;45.70;;;29.40;;
6135;SDS011;24008;42.664;23.372;2022-12-29T08:35:04;43.43;;;30.20;;
6135;SDS011;24008;42.664;23.372;2022-12-29T08:37:31;46.60;;;29.57;;
6135;SDS011;24008;42.664;23.372;2022-12-29T08:40:00;46.70;;;29.93;;
6135;SDS011;24008;42.664;23.372;2022-12-29T08:42:28;43.53;;;30.50;;
6135;SDS011;24008;42.664;23.372;2022-12-29T08:44:56;47.17;;;30.33;;
6135;SDS011;24008;42.664;23.372;2022-12-29T08:47:23;47.37;;;31.67;;
6135;SDS011;24008;42.664;23.372;2022-12-29T08:49:50;46.97;;;30.90;;
6135;SDS011;24008;42.664;23.372;2022-12-29T08:52:17;49.50;;;31.00;;
6135;SDS011;24008;42.664;23.372;2022-12-29T08:54:45;51.73;;;31.23;;
6135;SDS011;24008;42.664;23.372;2022-12-29T08:57:13;46.20;;;31.27;;
6135;SDS011;24008;42.664;23.372;2022-12-29T08:59:40;50.77;;;30.50;;
6135;SDS011;24008;42.664;23.372;2022-12-29T09:02:09;45.33;;;30.07;;
6135;SDS011;24008;42.664;23.372;2022-12-29T09:04:37;46.17;;;31.03;;
6135;SDS011;24008;42.664;23.372;2022-12-29T09:07:04;43.93;;;29.33;;
6135;SDS011;24008;42.664;23.372;2022-12-29T09:09:31;45.57;;;30.07;;
6135;SDS011;24008;42.664;23.372;2022-12-29T09:11:58;50.47;;;30.10;;
6135;SDS011;24008;42.664;23.372;2022-12-29T09:14:26;46.10;;;29.97;;
6135;SDS011;24008;42.664;23.372;2022-12-29T09:16:53;56.40;;;32.53;;
6135;SDS011;24008;42.664;23.372;2022-12-29T09:19:37;45.00;;;30.33;;
6135;SDS011;24008;42.664;23.372;2022-12-29T09:22:04;46.87;;;30.40;;
6135;SDS011;24008;42.664;23.372;2022-12-29T09:24:32;50.53;;;31.47;;
6135;SDS011;24008;42.664;23.372;2022-12-29T09:26:58;43.80;;;30.50;;
6135;SDS011;24008;42.664;23.372;2022-12-29T09:29:27;44.27;;;29.37;;
6135;SDS011;24008;42.664;23.372;2022-12-29T09:31:54;50.30;;;31.73;;
6135;SDS011;24008;42.664;23.372;2022-12-29T09:34:20;42.60;;;28.83;;
6135;SDS011;24008;42.664;23.372;2022-12-29T09:36:47;40.47;;;28.57;;
6135;SDS011;24008;42.664;23.372;2022-12-29T09:39:14;52.50;;;29.47;;
6135;SDS011;24008;42.664;23.372;2022-12-29T09:41:42;42.13;;;29.77;;
6135;SDS011;24008;42.664;23.372;2022-12-29T09:44:16;42.67;;;30.03;;
6135;SDS011;24008;42.664;23.372;2022-12-29T09:46:50;48.10;;;29.87;;
6135;SDS011;24008;42.664;23.372;2022-12-29T09:49:24;42.10;;;28.07;;
6135;SDS011;24008;42.664;23.372;2022-12-29T09:51:59;43.57;;;29.07;;
6135;SDS011;24008;42.664;23.372;2022-12-29T09:54:40;41.70;;;28.57;;
6135;SDS011;24008;42.664;23.372;2022-12-29T09:57:16;41.00;;;26.70;;
6135;SDS011;24008;42.664;23.372;2022-12-29T09:59:48;43.23;;;27.57;;
6135;SDS011;24008;42.664;23.372;2022-12-29T10:02:26;43.17;;;27.00;;
6135;SDS011;24008;42.664;23.372;2022-12-29T10:04:58;40.73;;;25.73;;
6135;SDS011;24008;42.664;23.372;2022-12-29T10:07:34;36.17;;;24.00;;
6135;SDS011;24008;42.664;23.372;2022-12-29T10:10:14;34.87;;;22.87;;
6135;SDS011;24008;42.664;23.372;2022-12-29T10:12:56;35.53;;;22.27;;
6135;SDS011;24008;42.664;23.372;2022-12-29T10:15:36;33.97;;;22.27;;
6135;SDS011;24008;42.664;23.372;2022-12-29T10:18:19;31.77;;;22.20;;
6135;SDS011;24008;42.664;23.372;2022-12-29T10:20:56;32.80;;;22.90;;
6135;SDS011;24008;42.664;23.372;2022-12-29T10:23:32;34.50;;;23.87;;
6135;SDS011;24008;42.664;23.372;2022-12-29T10:26:02;40.33;;;26.10;;
6135;SDS011;24008;42.664;23.372;2022-12-29T10:28:35;38.17;;;25.43;;
6135;SDS011;24008;42.664;23.372;2022-12-29T10:31:06;35.90;;;24.37;;
6135;SDS011;24008;42.664;23.372;2022-12-29T10:33:41;42.90;;;25.77;;
6135;SDS011;24008;42.664;23.372;2022-12-29T10:36:12;41.17;;;25.30;;
6135;SDS011;24008;42.664;23.372;2022-12-29T10:38:45;41.33;;;26.40;;
6135;SDS011;24008;42.664;23.372;2022-12-29T10:41:19;41.13;;;25.27;;
6135;SDS011;24008;42.664;23.372;2022-12-29T10:43:52;37.83;;;25.10;;
6135;SDS011;24008;42.664;23.372;2022-12-29T10:46:21;42.77;;;24.57;;
6135;SDS011;24008;42.664;23.372;2022-12-29T10:48:53;38.63;;;25.43;;
6135;SDS011;24008;42.664;23.372;2022-12-29T10:51:21;42.50;;;25.80;;
6135;SDS011;24008;42.664;23.372;2022-12-29T10:53:51;43.57;;;25.73;;
6135;SDS011;24008;42.664;23.372;2022-12-29T10:56:25;39.27;;;26.53;;
6135;SDS011;24008;42.664;23.372;2022-12-29T10:58:58;43.83;;;26.00;;
6135;SDS011;24008;42.664;23.372;2022-12-29T11:01:34;45.43;;;27.37;;
6135;SDS011;24008;42.664;23.372;2022-12-29T11:04:15;43.17;;;26.37;;
6135;SDS011;24008;42.664;23.372;2022-12-29T11:06:54;44.30;;;28.17;;
6135;SDS011;24008;42.664;23.372;2022-12-29T11:09:23;46.07;;;29.33;;
6135;SDS011;24008;42.664;23.372;2022-12-29T11:11:53;46.67;;;29.67;;
6135;SDS011;24008;42.664;23.372;2022-12-29T11:14:21;44.43;;;28.37;;
6135;SDS011;24008;42.664;23.372;2022-12-29T11:16:57;44.57;;;28.40;;
6135;SDS011;24008;42.664;23.372;2022-12-29T11:19:28;43.97;;;27.80;;
6135;SDS011;24008;42.664;23.372;2022-12-29T11:21:56;44.63;;;28.47;;
6135;SDS011;24008;42.664;23.372;2022-12-29T11:24:43;46.60;;;27.43;;
6135;SDS011;24008;42.664;23.372;2022-12-29T11:27:14;45.57;;;29.40;;
6135;SDS011;24008;42.664;23.372;2022-12-29T11:29:44;51.00;;;28.77;;
6135;SDS011;24008;42.664;23.372;2022-12-29T11:32:12;51.17;;;29.07;;
6135;SDS011;24008;42.664;23.372;2022-12-29T11:34:46;44.93;;;29.23;;
6135;SDS011;24008;42.664;23.372;2022-12-29T11:37:14;48.20;;;29.53;;
6135;SDS011;24008;42.664;23.372;2022-12-29T11:39:46;45.70;;;29.17;;
6135;SDS011;24008;42.664;23.372;2022-12-29T11:42:17;49.63;;;29.17;;
6135;SDS011;24008;42.664;23.372;2022-12-29T11:44:49;48.43;;;29.43;;
6135;SDS011;24008;42.664;23.372;2022-12-29T11:47:22;46.80;;;29.10;;
6135;SDS011;24008;42.664;23.372;2022-12-29T11:49:55;50.30;;;29.10;;
6135;SDS011;24008;42.664;23.372;2022-12-29T11:52:25;47.00;;;29.17;;
6135;SDS011;24008;42.664;23.372;2022-12-29T11:54:56;47.73;;;28.10;;
6135;SDS011;24008;42.664;23.372;2022-12-29T11:57:23;44.30;;;28.00;;
6135;SDS011;24008;42.664;23.372;2022-12-29T11:59:52;47.13;;;28.70;;
6135;SDS011;24008;42.664;23.372;2022-12-29T12:02:31;45.50;;;27.43;;
6135;SDS011;24008;42.664;23.372;2022-12-29T12:05:09;43.73;;;28.00;;
6135;SDS011;24008;42.664;23.372;2022-12-29T12:07:41;43.73;;;26.67;;
6135;SDS011;24008;42.664;23.372;2022-12-29T12:10:12;45.40;;;26.77;;
6135;SDS011;24008;42.664;23.372;2022-12-29T12:12:46;43.80;;;26.67;;
6135;SDS011;24008;42.664;23.372;2022-12-29T12:15:17;44.17;;;27.40;;
6135;SDS011;24008;42.664;23.372;2022-12-29T12:17:50;43.47;;;27.73;;
6135;SDS011;24008;42.664;23.372;2022-12-29T12:20:22;43.17;;;28.07;;
6135;SDS011;24008;42.664;23.372;2022-12-29T12:23:02;47.67;;;28.23;;
6135;SDS011;24008;42.664;23.372;2022-12-29T12:25:40;43.37;;;27.50;;
6135;SDS011;24008;42.664;23.372;2022-12-29T12:28:25;45.83;;;27.33;;
6135;SDS011;24008;42.664;23.372;2022-12-29T12:30:57;45.43;;;27.87;;
6135;SDS011;24008;42.664;23.372;2022-12-29T12:33:27;43.20;;;27.43;;
6135;SDS011;24008;42.664;23.372;2022-12-29T12:36:04;46.40;;;29.13;;
6135;SDS011;24008;42.664;23.372;2022-12-29T12:38:48;47.17;;;27.93;;
6135;SDS011;24008;42.664;23.372;2022-12-29T12:41:22;49.63;;;30.70;;
6135;SDS011;24008;42.664;23.372;2022-12-29T12:44:00;49.90;;;29.63;;
6135;SDS011;24008;42.664;23.372;2022-12-29T12:46:38;55.43;;;30.17;;
6135;SDS011;24008;42.664;23.372;2022-12-29T12:49:27;49.43;;;29.53;;
6135;SDS011;24008;42.664;23.372;2022-12-29T12:52:05;47.13;;;27.83;;
6135;SDS011;24008;42.664;23.372;2022-12-29T12:54:45;46.13;;;27.97;;
6135;SDS011;24008;42.664;23.372;2022-12-29T12:57:32;49.03;;;28.60;;
6135;SDS011;24008;42.664;23.372;2022-12-29T13:00:08;42.40;;;27.60;;
6135;SDS011;24008;42.664;23.372;2022-12-29T13:02:40;49.27;;;29.57;;
6135;SDS011;24008;42.664;23.372;2022-12-29T13:05:25;47.43;;;28.00;;
6135;SDS011;24008;42.664;23.372;2022-12-29T13:08:10;44.70;;;28.13;;
6135;SDS011;24008;42.664;23.372;2022-12-29T13:11:02;44.67;;;27.93;;
6135;SDS011;24008;42.664;23.372;2022-12-29T13:13:56;47.93;;;27.30;;
6135;SDS011;24008;42.664;23.372;2022-12-29T13:16:46;43.83;;;26.80;;
6135;SDS011;24008;42.664;23.372;2022-12-29T13:19:23;50.77;;;29.60;;
6135;SDS011;24008;42.664;23.372;2022-12-29T13:21:57;49.57;;;29.47;;
6135;SDS011;24008;42.664;23.372;2022-12-29T13:24:34;50.13;;;29.00;;
6135;SDS011;24008;42.664;23.372;2022-12-29T13:27:13;46.63;;;29.67;;
6135;SDS011;24008;42.664;23.372;2022-12-29T13:29:47;47.70;;;28.07;;
6135;SDS011;24008;42.664;23.372;2022-12-29T13:32:25;45.80;;;28.63;;
6135;SDS011;24008;42.664;23.372;2022-12-29T13:35:07;47.43;;;29.27;;
6135;SDS011;24008;42.664;23.372;2022-12-29T13:37:46;50.70;;;28.90;;
6135;SDS011;24008;42.664;23.372;2022-12-29T13:40:19;45.93;;;28.13;;
6135;SDS011;24008;42.664;23.372;2022-12-29T13:42:49;45.03;;;27.50;;
6135;SDS011;24008;42.664;23.372;2022-12-29T13:45:18;49.13;;;27.60;;
6135;SDS011;24008;42.664;23.372;2022-12-29T13:47:48;42.27;;;25.87;;
6135;SDS011;24008;42.664;23.372;2022-12-29T13:50:22;49.90;;;26.73;;
6135;SDS011;24008;42.664;23.372;2022-12-29T13:52:54;47.30;;;27.40;;
6135;SDS011;24008;42.664;23.372;2022-12-29T13:55:26;44.10;;;25.83;;
6135;SDS011;24008;42.664;23.372;2022-12-29T13:58:00;50.47;;;27.47;;
6135;SDS011;24008;42.664;23.372;2022-12-29T14:00:33;46.33;;;27.80;;
6135;SDS011;24008;42.664;23.372;2022-12-29T14:03:17;48.43;;;28.17;;
6135;SDS011;24008;42.664;23.372;2022-12-29T14:06:04;47.87;;;29.13;;
6135;SDS011;24008;42.664;23.372;2022-12-29T14:08:38;53.73;;;29.37;;
6135;SDS011;24008;42.664;23.372;2022-12-29T14:11:08;47.37;;;30.00;;
6135;SDS011;24008;42.664;23.372;2022-12-29T14:13:37;51.70;;;29.50;;
6135;SDS011;24008;42.664;23.372;2022-12-29T14:16:06;48.50;;;29.33;;
6135;SDS011;24008;42.664;23.372;2022-12-29T14:18:41;47.73;;;29.30;;
6135;SDS011;24008;42.664;23.372;2022-12-29T14:21:11;50.17;;;29.90;;
6135;SDS011;24008;42.664;23.372;2022-12-29T14:23:48;49.00;;;30.37;;
6135;SDS011;24008;42.664;23.372;2022-12-29T14:26:18;52.47;;;30.00;;
6135;SDS011;24008;42.664;23.372;2022-12-29T14:38:13;56.47;;;32.10;;
6135;SDS011;24008;42.664;23.372;2022-12-29T14:40:43;187.07;;;38.67;;
6135;SDS011;24008;42.664;23.372;2022-12-29T14:43:18;69.47;;;34.13;;
6135;SDS011;24008;42.664;23.372;2022-12-29T14:45:53;67.00;;;35.67;;
6135;SDS011;24008;42.664;23.372;2022-12-29T14:48:28;58.73;;;34.83;;
6135;SDS011;24008;42.664;23.372;2022-12-29T14:50:59;63.00;;;36.27;;
6135;SDS011;24008;42.664;23.372;2022-12-29T14:53:43;62.10;;;35.30;;
6135;SDS011;24008;42.664;23.372;2022-12-29T14:56:13;61.53;;;40.58;;
6135;SDS011;24008;42.664;23.372;2022-12-29T14:58:46;58.83;;;37.03;;
6135;SDS011;24008;42.664;23.372;2022-12-29T15:01:17;64.87;;;36.23;;